Time;durP1;ratioP1;P1;durP2;ratioP2;P2;SDS_P1;SDS_P2;PMS_P1;PMS_P2;Temp;Humidity;BMP_temperature;BMP_pressure;BME280_temperature;BME280_humidity;BME280_pressure;Samples;Min_cycle;Max_cycle;Signal;HPM_P1;HPM_P2
2024/01/23 00:00:08;;;;;;;2.20;2.10;;;;;;;1.82;66.42;100647.78;4387663;32;32498;-93
2024/01/23 00:02:50;;;;;;;2.00;1.90;;;;;;;1.06;69.26;100640.31;4375223;32;32471;-88
2024/01/23 00:05:19;;;;;;;2.70;2.50;;;;;;;1.74;66.65;100642.53;4383413;32;33599;-88
2024/01/23 00:07:47;;;;;;;2.83;2.62;;;;;;;1.83;66.44;100640.84;4381671;32;33315;-88
2024/01/23 00:10:15;;;;;;;2.40;2.30;;;;;;;1.89;66.38;100627.84;4371185;32;33362;-88
2024/01/23 00:12:43;;;;;;;4.45;4.05;;;;;;;1.54;66.88;100641.53;4383866;32;34016;-89
2024/01/23 00:15:11;;;;;;;1.60;1.58;;;;;;;1.65;66.45;100632.06;4383249;32;33418;-89
2024/01/23 00:17:39;;;;;;;1.85;1.77;;;;;;;1.91;66.22;100624.41;4388676;32;34101;-89
2024/01/23 00:20:07;;;;;;;2.95;2.70;;;;;;;2.09;65.58;100638.34;4369987;32;32636;-90
2024/01/23 00:22:35;;;;;;;3.65;1.55;;;;;;;2.16;65.20;100635.78;4388965;32;33578;-90
2024/01/23 00:25:24;;;;;;;2.15;2.05;;;;;;;1.85;65.92;100628.69;4372935;32;32493;-90
2024/01/23 00:28:11;;;;;;;0.47;0.47;;;;;;;2.39;64.51;100621.97;4380620;32;33203;-90
2024/01/23 00:31:06;;;;;;;5.55;2.80;;;;;;;2.31;64.65;100612.38;4376215;32;33491;-93
2024/01/23 00:33:45;;;;;;;3.22;3.05;;;;;;;1.81;66.66;100613.94;4353227;32;32554;-92
2024/01/23 00:36:35;;;;;;;2.60;1.60;;;;;;;1.74;66.42;100621.69;4372606;32;32802;-91
2024/01/23 00:39:15;;;;;;;0.30;0.30;;;;;;;1.89;66.53;100622.63;4371712;32;33912;-92
2024/01/23 00:42:15;;;;;;;1.02;1.02;;;;;;;1.94;66.14;100627.00;4378108;32;33462;-92
2024/01/23 00:45:03;;;;;;;3.45;3.25;;;;;;;1.97;66.19;100631.38;4390820;32;32998;-90
2024/01/23 00:48:00;;;;;;;9.25;3.33;;;;;;;1.79;66.40;100653.84;4383777;32;32507;-91
2024/01/23 00:50:47;;;;;;;2.62;1.65;;;;;;;2.03;65.34;100652.22;4387684;32;32824;-91
2024/01/23 00:54:03;;;;;;;1.08;1.08;;;;;;;2.47;64.20;100648.91;4366888;32;32662;-92
2024/01/23 00:56:31;;;;;;;2.10;2.00;;;;;;;2.57;63.69;100658.50;4375959;32;33450;-91
2024/01/23 00:59:00;;;;;;;6.53;5.37;;;;;;;2.51;63.82;100650.66;4375595;32;32077;-91
2024/01/23 01:01:27;;;;;;;5.68;4.30;;;;;;;2.60;63.32;100653.28;4374823;32;34250;-91
2024/01/23 01:04:13;;;;;;;4.53;2.80;;;;;;;2.19;64.16;100654.03;4363435;32;33340;-91
2024/01/23 01:06:41;;;;;;;4.82;3.42;;;;;;;1.70;66.31;100647.72;4376054;32;32004;-92
2024/01/23 01:09:10;;;;;;;0.60;0.60;;;;;;;1.90;65.45;100645.19;4375148;32;33270;-91
2024/01/23 01:11:38;;;;;;;1.50;1.50;;;;;;;2.03;65.25;100636.59;4375373;32;33753;-92
2024/01/23 01:14:06;;;;;;;2.87;2.72;;;;;;;2.09;65.51;100633.13;4374555;32;32738;-91
2024/01/23 01:16:34;;;;;;;0.60;0.60;;;;;;;2.28;64.24;100632.38;4374854;32;32868;-91
2024/01/23 01:19:03;;;;;;;4.53;4.22;;;;;;;2.26;64.35;100629.72;4374897;32;33631;-91
2024/01/23 01:21:32;;;;;;;15.63;6.15;;;;;;;2.70;62.74;100621.16;4374443;32;33286;-91
2024/01/23 01:24:00;;;;;;;3.10;2.90;;;;;;;2.34;63.62;100618.47;4377334;32;32137;-91
2024/01/23 01:26:28;;;;;;;2.83;2.62;;;;;;;2.27;64.16;100609.75;4377126;32;32256;-90
2024/01/23 01:28:57;;;;;;;1.55;1.45;;;;;;;1.92;64.80;100617.44;4376720;32;32346;-91
2024/01/23 01:31:24;;;;;;;2.97;2.72;;;;;;;2.20;65.03;100624.50;4364031;32;32846;-92
2024/01/23 01:33:52;;;;;;;0.88;0.88;;;;;;;2.39;64.14;100625.44;4373937;32;33899;-91
2024/01/23 01:36:20;;;;;;;4.93;4.45;;;;;;;2.21;63.90;100615.81;4369623;32;33093;-90
2024/01/23 01:38:48;;;;;;;2.30;2.10;;;;;;;2.38;63.94;100621.09;4373711;32;33154;-90
2024/01/23 01:41:16;;;;;;;4.05;3.75;;;;;;;2.18;64.47;100628.84;4375331;32;33346;-90
2024/01/23 01:43:44;;;;;;;2.03;1.92;;;;;;;2.12;64.68;100626.22;4376733;32;32506;-91
2024/01/23 01:46:16;;;;;;;2.20;2.05;;;;;;;2.36;64.14;100620.22;4377064;32;33374;-91
2024/01/23 01:48:46;;;;;;;4.37;3.10;;;;;;;2.39;64.08;100620.22;4358129;32;33171;-89
2024/01/23 01:51:15;;;;;;;3.10;1.02;;;;;;;2.51;64.01;100625.44;4369995;32;34187;-90
2024/01/23 01:53:43;;;;;;;5.60;3.67;;;;;;;2.39;64.30;100628.06;4391349;32;33910;-92
2024/01/23 01:56:12;;;;;;;3.20;3.00;;;;;;;2.68;63.67;100620.28;4393720;32;32397;-93
2024/01/23 01:58:45;;;;;;;1.12;1.05;;;;;;;2.79;63.31;100615.06;4380421;32;33847;-89
2024/01/23 02:01:13;;;;;;;1.20;1.20;;;;;;;2.56;63.68;100615.94;4367279;32;32475;-90
2024/01/23 02:03:41;;;;;;;1.40;1.12;;;;;;;2.72;62.73;100603.78;4391610;32;33911;-88
2024/01/23 02:06:11;;;;;;;9.40;7.55;;;;;;;2.91;61.98;100612.50;4383924;32;32031;-88
2024/01/23 02:08:38;;;;;;;2.30;2.17;;;;;;;2.79;62.04;100608.12;4378082;32;34316;-89
2024/01/23 02:11:06;;;;;;;5.60;4.28;;;;;;;2.73;62.35;100599.44;4388519;32;34343;-89
2024/01/23 02:13:35;;;;;;;6.40;5.32;;;;;;;2.67;62.30;100587.25;4391591;32;33954;-89
2024/01/23 02:16:02;;;;;;;0.82;0.82;;;;;;;2.82;62.29;100584.66;4402022;32;32486;-89
2024/01/23 02:18:30;;;;;;;8.68;4.03;;;;;;;2.60;62.76;100569.00;4387665;32;33860;-89
2024/01/23 02:20:58;;;;;;;4.93;2.25;;;;;;;2.74;62.04;100567.25;4383734;32;32601;-89
2024/01/23 02:23:30;;;;;;;7.45;4.93;;;;;;;2.61;62.42;100578.53;4403149;32;34492;-91
2024/01/23 02:25:58;;;;;;;2.55;2.35;;;;;;;2.47;62.97;100597.66;4377202;32;32302;-91
2024/01/23 02:28:26;;;;;;;4.60;4.20;;;;;;;2.30;64.23;100600.22;4396587;32;32835;-91
2024/01/23 02:30:53;;;;;;;2.70;2.50;;;;;;;2.47;64.11;100592.44;4404244;32;32835;-90
2024/01/23 02:33:21;;;;;;;3.47;1.65;;;;;;;2.98;62.28;100584.66;4392296;32;33790;-92
2024/01/23 02:35:49;;;;;;;5.53;4.60;;;;;;;2.70;62.59;100594.19;4388849;32;32083;-90
2024/01/23 02:38:16;;;;;;;0.70;0.70;;;;;;;2.67;63.21;100591.59;4394755;32;33398;-90
2024/01/23 02:40:44;;;;;;;4.05;3.80;;;;;;;2.62;63.19;100602.03;4395173;32;34678;-93
2024/01/23 02:43:31;;;;;;;1.58;1.55;;;;;;;2.88;63.08;100588.12;4391939;32;33717;-93
2024/01/23 02:46:32;;;;;;;3.23;3.07;;;;;;;3.19;61.25;100584.66;4374348;32;32227;-92
2024/01/23 02:49:02;;;;;;;6.18;4.12;;;;;;;2.88;62.20;100593.34;4368001;32;33140;-91
2024/01/23 02:51:33;;;;;;;2.15;2.05;;;;;;;3.18;61.84;100597.69;4360898;32;33448;-91
2024/01/23 02:54:01;;;;;;;13.90;7.57;;;;;;;3.34;60.62;100600.28;4369167;32;32297;-90
2024/01/23 02:56:28;;;;;;;3.08;2.40;;;;;;;2.92;61.74;100595.09;4368150;32;31938;-91
2024/01/23 02:58:56;;;;;;;4.03;3.45;;;;;;;2.88;62.71;100601.19;4372631;32;33908;-90
2024/01/23 03:01:24;;;;;;;3.12;2.87;;;;;;;3.10;61.82;100613.34;4354048;32;33516;-90
2024/01/23 03:03:52;;;;;;;1.50;1.35;;;;;;;2.97;62.29;100622.06;4362647;32;33779;-90
2024/01/23 03:06:20;;;;;;;3.92;3.55;;;;;;;3.04;62.50;100615.97;4370355;32;32954;-90
2024/01/23 03:09:10;;;;;;;4.40;4.10;;;;;;;3.04;62.43;100610.75;4370247;32;32660;-92
2024/01/23 03:11:58;;;;;;;3.55;3.22;;;;;;;3.41;60.58;100611.56;4364359;32;32962;-91
2024/01/23 03:14:27;;;;;;;3.85;3.00;;;;;;;3.27;61.09;100608.09;4363740;32;33095;-90
2024/01/23 03:17:07;;;;;;;2.05;1.98;;;;;;;2.96;61.91;100609.87;4372486;32;32208;-92
2024/01/23 03:20:05;;;;;;;0.82;0.82;;;;;;;2.98;62.63;100615.94;4345125;32;34034;-90
2024/01/23 03:22:33;;;;;;;1.48;1.48;;;;;;;3.18;61.94;100614.22;4354705;32;33608;-90
2024/01/23 03:25:02;;;;;;;2.75;1.95;;;;;;;3.22;61.63;100605.50;4353648;32;33150;-91
2024/01/23 03:27:31;;;;;;;1.02;1.00;;;;;;;3.05;62.20;100610.75;4361168;32;32190;-90
2024/01/23 03:29:59;;;;;;;3.58;3.35;;;;;;;2.89;62.44;100618.56;4354157;32;32899;-90
2024/01/23 03:32:27;;;;;;;2.87;2.70;;;;;;;3.01;62.66;100602.91;4359898;32;32952;-90
2024/01/23 03:34:55;;;;;;;1.75;1.67;;;;;;;2.88;62.95;100606.37;4358367;32;33879;-90
2024/01/23 03:37:22;;;;;;;2.53;2.40;;;;;;;2.82;62.70;100617.69;4359801;32;32686;-90
2024/01/23 03:39:51;;;;;;;2.85;2.65;;;;;;;3.06;62.74;100606.41;4360834;32;33273;-90
2024/01/23 03:42:18;;;;;;;3.22;3.00;;;;;;;3.18;62.37;100598.56;4355095;32;33714;-89
2024/01/23 03:44:46;;;;;;;2.97;2.78;;;;;;;3.13;62.12;100602.03;4357508;32;33443;-89
2024/01/23 03:47:15;;;;;;;5.37;3.65;;;;;;;3.26;61.77;100582.87;4361118;32;33381;-90
2024/01/23 03:49:42;;;;;;;2.92;2.28;;;;;;;3.17;62.38;100586.37;4355968;32;34505;-89
2024/01/23 03:52:10;;;;;;;2.47;2.37;;;;;;;3.13;62.71;100592.47;4355017;32;33901;-90
2024/01/23 03:54:41;;;;;;;8.48;2.53;;;;;;;3.18;62.07;100602.91;4361945;32;33293;-91
2024/01/23 03:57:08;;;;;;;1.35;1.35;;;;;;;3.17;62.77;100602.03;4359800;32;31844;-90
2024/01/23 03:59:37;;;;;;;2.40;2.30;;;;;;;3.23;62.52;100596.81;4356295;32;32706;-89
2024/01/23 04:02:04;;;;;;;5.62;3.78;;;;;;;3.12;62.67;100606.37;4359734;32;33906;-91
2024/01/23 04:04:33;;;;;;;2.30;2.10;;;;;;;3.16;62.91;100618.56;4361944;32;32800;-90
2024/01/23 04:07:00;;;;;;;2.60;2.45;;;;;;;3.27;62.48;100626.38;4362320;32;32404;-91
2024/01/23 04:09:28;;;;;;;5.85;4.40;;;;;;;3.31;62.30;100634.22;4361060;32;33952;-89
2024/01/23 04:11:57;;;;;;;2.95;2.22;;;;;;;3.30;62.34;100616.81;4357393;32;33447;-89
2024/01/23 04:14:24;;;;;;;6.35;4.50;;;;;;;3.34;62.56;100612.47;4359788;32;32862;-90
2024/01/23 04:16:52;;;;;;;3.72;3.40;;;;;;;3.32;62.42;100612.47;4361035;32;33609;-90
2024/01/23 04:19:20;;;;;;;2.33;2.22;;;;;;;3.35;62.41;100622.03;4361267;32;34527;-91
2024/01/23 04:21:48;;;;;;;5.87;3.50;;;;;;;3.45;62.17;100615.91;4358005;32;32701;-89
2024/01/23 04:24:15;;;;;;;2.67;2.55;;;;;;;3.36;62.61;100630.72;4371355;32;33401;-89
2024/01/23 04:26:45;;;;;;;2.75;2.55;;;;;;;3.48;61.92;100628.13;4349381;32;32585;-89
2024/01/23 04:29:13;;;;;;;2.28;2.17;;;;;;;3.41;62.45;100636.81;4358972;32;33521;-89
2024/01/23 04:31:41;;;;;;;4.28;3.17;;;;;;;3.47;61.63;100637.69;4346814;32;33726;-89
2024/01/23 04:34:09;;;;;;;2.37;2.20;;;;;;;3.44;61.68;100635.06;4346224;32;34094;-89
2024/01/23 04:36:37;;;;;;;9.80;8.93;;;;;;;3.41;62.11;100628.97;4357440;32;32462;-93
2024/01/23 04:39:28;;;;;;;2.45;2.30;;;;;;;3.41;62.12;100647.25;4380225;32;32649;-92
2024/01/23 04:42:08;;;;;;;2.95;2.75;;;;;;;3.47;61.70;100629.00;4382319;32;32437;-92
2024/01/23 04:45:00;;;;;;;4.53;3.08;;;;;;;3.62;61.48;100626.34;4395809;32;33621;-92
2024/01/23 04:47:47;;;;;;;12.55;4.68;;;;;;;3.46;61.25;100635.06;4386958;32;33519;-91
2024/01/23 04:50:25;;;;;;;1.90;1.83;;;;;;;3.33;62.03;100636.84;4396052;32;33182;-92
2024/01/23 04:53:12;;;;;;;2.03;1.92;;;;;;;3.46;61.58;100632.44;4383869;32;32948;-90
2024/01/23 04:55:40;;;;;;;1.62;1.52;;;;;;;3.49;61.69;100645.50;4392867;32;33975;-90
2024/01/23 04:58:08;;;;;;;2.67;1.25;;;;;;;3.40;62.29;100640.31;4373639;32;33592;-89
2024/01/23 05:00:35;;;;;;;1.73;1.40;;;;;;;3.40;62.04;100655.97;4392850;32;32701;-89
2024/01/23 05:03:04;;;;;;;1.75;1.65;;;;;;;3.42;61.93;100675.09;4390316;32;33064;-90
2024/01/23 05:05:31;;;;;;;4.62;4.30;;;;;;;3.32;62.07;100677.75;4387985;32;33081;-88
2024/01/23 05:07:59;;;;;;;3.90;3.60;;;;;;;3.33;62.22;100666.41;4392454;32;33093;-89
2024/01/23 05:10:27;;;;;;;4.05;3.70;;;;;;;3.40;62.25;100666.41;4394419;32;33389;-89
2024/01/23 05:12:55;;;;;;;2.05;1.95;;;;;;;3.26;62.56;100654.22;4375788;32;32553;-89
2024/01/23 05:15:23;;;;;;;3.87;3.45;;;;;;;3.30;61.26;100658.59;4372340;32;33673;-88
2024/01/23 05:17:51;;;;;;;1.77;1.65;;;;;;;3.20;62.67;100661.19;4394298;32;33206;-87
2024/01/23 05:20:19;;;;;;;3.97;3.62;;;;;;;3.36;61.64;100655.09;4405020;32;33474;-90
2024/01/23 05:22:47;;;;;;;2.90;2.62;;;;;;;3.36;61.66;100649.00;4365135;32;34112;-90
2024/01/23 05:25:16;;;;;;;5.75;3.67;;;;;;;3.27;61.93;100655.97;4375978;32;34429;-90
2024/01/23 05:27:45;;;;;;;1.67;1.60;;;;;;;3.31;62.10;100654.22;4376217;32;32253;-90
2024/01/23 05:30:13;;;;;;;2.50;2.40;;;;;;;3.39;61.86;100659.44;4384931;32;32944;-90
2024/01/23 05:32:41;;;;;;;1.05;1.05;;;;;;;3.37;61.94;100656.84;4375866;32;33776;-90
2024/01/23 05:35:09;;;;;;;1.60;1.50;;;;;;;3.38;61.78;100662.94;4391317;32;32851;-90
2024/01/23 05:37:36;;;;;;;5.82;2.87;;;;;;;3.31;61.44;100670.75;4382041;32;33660;-90
2024/01/23 05:40:09;;;;;;;4.68;3.05;;;;;;;3.45;61.52;100669.88;4372256;32;32358;-90
2024/01/23 05:42:37;;;;;;;3.22;2.87;;;;;;;3.37;61.37;100672.50;4373323;32;34027;-91
2024/01/23 05:45:05;;;;;;;4.47;2.92;;;;;;;3.39;61.37;100675.13;4387326;32;32819;-90
2024/01/23 05:47:33;;;;;;;5.25;3.67;;;;;;;3.38;61.42;100682.09;4386921;32;32027;-89
2024/01/23 05:50:01;;;;;;;2.08;1.92;;;;;;;3.21;61.65;100671.63;4405339;32;33080;-89
2024/01/23 05:52:30;;;;;;;3.35;3.15;;;;;;;3.20;61.68;100669.03;4394670;32;34129;-90
2024/01/23 05:54:59;;;;;;;3.17;2.95;;;;;;;3.20;61.56;100675.13;4386101;32;32920;-89
2024/01/23 05:57:27;;;;;;;3.10;3.00;;;;;;;3.19;61.45;100689.03;4406190;32;32587;-89
2024/01/23 05:59:56;;;;;;;2.90;2.70;;;;;;;3.04;62.14;100694.25;4381335;32;33952;-90
2024/01/23 06:02:24;;;;;;;3.97;3.53;;;;;;;3.17;61.89;100706.41;4410232;32;33096;-89
2024/01/23 06:04:52;;;;;;;4.15;3.92;;;;;;;3.27;61.76;100722.97;4385340;32;34074;-89
2024/01/23 06:07:20;;;;;;;3.62;3.37;;;;;;;3.27;60.81;100721.22;4400221;32;32636;-89
2024/01/23 06:09:48;;;;;;;2.28;2.15;;;;;;;3.17;61.81;100719.47;4399376;32;33103;-89
2024/01/23 06:12:16;;;;;;;1.77;1.67;;;;;;;3.25;61.55;100729.94;4397135;32;33149;-87
2024/01/23 06:14:44;;;;;;;3.50;3.30;;;;;;;3.15;61.84;100741.22;4414402;32;34460;-87
2024/01/23 06:17:12;;;;;;;2.28;2.15;;;;;;;3.22;61.59;100742.97;4397919;32;32364;-88
2024/01/23 06:19:40;;;;;;;1.25;1.25;;;;;;;3.23;61.57;100732.53;4390415;32;33152;-88
2024/01/23 06:22:07;;;;;;;2.37;2.22;;;;;;;3.34;61.20;100736.03;4391932;32;33318;-89
2024/01/23 06:24:37;;;;;;;6.93;4.30;;;;;;;3.33;60.96;100743.88;4402030;32;34250;-87
2024/01/23 06:27:06;;;;;;;2.10;2.00;;;;;;;3.38;61.01;100747.34;4403690;32;32971;-86
2024/01/23 06:29:33;;;;;;;3.05;2.83;;;;;;;3.38;61.01;100741.25;4381044;32;33395;-87
2024/01/23 06:32:01;;;;;;;1.62;1.52;;;;;;;3.33;60.92;100733.44;4410133;32;32856;-91
2024/01/23 06:34:29;;;;;;;4.68;2.25;;;;;;;3.60;60.29;100737.75;4373750;32;33712;-91
2024/01/23 06:36:57;;;;;;;2.03;1.48;;;;;;;3.49;60.37;100749.94;4407598;32;34054;-91
2024/01/23 06:39:24;;;;;;;8.93;5.30;;;;;;;3.60;60.38;100738.63;4369422;32;33655;-87
2024/01/23 06:41:52;;;;;;;6.70;4.03;;;;;;;3.32;60.94;100753.44;4400424;32;33782;-90
2024/01/23 06:44:21;;;;;;;3.05;2.95;;;;;;;3.34;60.95;100767.34;4404179;32;33018;-89
2024/01/23 06:46:48;;;;;;;4.78;4.37;;;;;;;3.41;61.29;100764.75;4387295;32;33713;-91
2024/01/23 06:49:16;;;;;;;3.85;3.65;;;;;;;3.35;61.56;100763.00;4380699;32;32728;-91
2024/01/23 06:51:45;;;;;;;1.75;1.65;;;;;;;3.33;61.27;100764.75;4391893;32;33531;-92
2024/01/23 06:54:47;;;;;;;2.25;2.15;;;;;;;3.67;60.76;100770.84;4384693;32;33926;-92
2024/01/23 06:57:35;;;;;;;1.73;1.67;;;;;;;3.50;60.97;100773.44;4368134;32;32030;-92
2024/01/23 07:00:27;;;;;;;3.90;3.50;;;;;;;3.55;61.38;100776.06;4374106;32;34000;-92
2024/01/23 07:03:18;;;;;;;1.92;1.83;;;;;;;3.64;61.03;100786.50;4384041;32;33839;-92
2024/01/23 07:06:06;;;;;;;2.47;2.37;;;;;;;3.59;61.40;100798.69;4373105;32;32396;-90
2024/01/23 07:08:34;;;;;;;3.33;3.00;;;;;;;3.54;61.52;100810.88;4372621;32;32134;-90
2024/01/23 07:11:02;;;;;;;1.70;1.60;;;;;;;3.92;60.45;100817.88;4379101;32;32376;-90
2024/01/23 07:13:30;;;;;;;1.87;1.77;;;;;;;3.75;60.58;100810.00;4374207;32;32638;-92
2024/01/23 07:16:18;;;;;;;1.20;1.15;;;;;;;4.03;59.58;100822.19;4357522;32;32770;-93
2024/01/23 07:19:22;;;;;;;2.35;1.48;;;;;;;3.83;60.17;100824.81;4391599;32;32390;-92
2024/01/23 07:22:02;;;;;;;2.85;2.62;;;;;;;4.01;60.01;100823.97;4361058;32;33422;-92
2024/01/23 07:25:09;;;;;;;0.77;0.77;;;;;;;3.97;59.54;100816.13;4405413;32;32691;-92
2024/01/23 07:27:49;;;;;;;9.20;4.12;;;;;;;3.68;60.51;100823.97;4396531;32;31974;-92
2024/01/23 07:30:51;;;;;;;2.43;2.33;;;;;;;3.66;60.91;100820.50;4401385;32;33199;-93
2024/01/23 07:33:33;;;;;;;3.80;3.40;;;;;;;3.58;61.43;100828.31;4390340;32;32897;-93
2024/01/23 07:36:33;;;;;;;2.75;2.55;;;;;;;3.75;61.24;100821.38;4387296;32;33764;-92
2024/01/23 07:39:13;;;;;;;12.90;2.58;;;;;;;4.03;60.12;100810.88;4377416;32;32706;-94
2024/01/23 07:42:04;;;;;;;5.62;5.03;;;;;;;4.22;59.55;100812.59;4396418;32;32968;-92
2024/01/23 07:44:50;;;;;;;2.17;2.08;;;;;;;4.19;59.49;100804.78;4366932;32;32695;-91
2024/01/23 07:47:51;;;;;;;3.53;3.33;;;;;;;4.08;59.92;100801.28;4368423;32;33106;-92
2024/01/23 07:50:38;;;;;;;3.45;2.80;;;;;;;3.63;61.19;100821.34;4348643;32;33155;-92
2024/01/23 07:53:30;;;;;;;1.65;1.55;;;;;;;3.74;61.61;100810.88;4364057;32;32279;-91
2024/01/23 07:55:58;;;;;;;4.95;2.55;;;;;;;3.85;61.07;100796.97;4365197;32;33272;-91
2024/01/23 07:59:00;;;;;;;2.97;2.78;;;;;;;3.85;60.92;100799.59;4381448;32;32638;-94
2024/01/23 08:01:45;;;;;;;4.57;3.70;;;;;;;3.82;61.34;100807.41;4386054;32;34285;-92
2024/01/23 08:04:35;;;;;;;3.78;3.58;;;;;;;4.09;60.77;100805.66;4410426;32;33852;-92
2024/01/23 08:07:14;;;;;;;6.87;3.90;;;;;;;4.04;60.27;100808.28;4363721;32;32617;-92
2024/01/23 08:10:21;;;;;;;2.25;2.05;;;;;;;4.17;59.95;100839.63;4361776;32;33463;-92
2024/01/23 08:13:02;;;;;;;1.50;1.45;;;;;;;4.04;60.23;100817.88;4347021;32;33784;-93
2024/01/23 08:15:53;;;;;;;2.37;2.20;;;;;;;4.14;60.36;100827.44;4414297;32;31800;-93
2024/01/23 08:18:38;;;;;;;2.80;2.60;;;;;;;4.17;59.68;100827.41;4376470;32;33942;-93
2024/01/23 08:21:32;;;;;;;6.53;3.40;;;;;;;4.04;60.31;100838.78;4395945;32;32780;-92
2024/01/23 08:24:11;;;;;;;2.83;2.08;;;;;;;4.15;60.37;100857.94;4393381;32;33484;-92
2024/01/23 08:27:03;;;;;;;2.67;2.55;;;;;;;3.98;60.73;100857.91;4359467;32;32316;-92
2024/01/23 08:29:44;;;;;;;30.90;2.20;;;;;;;4.14;60.18;100853.59;4341983;32;33709;-89
2024/01/23 08:32:13;;;;;;;2.50;2.35;;;;;;;4.21;60.15;100847.47;4366866;32;34195;-90
2024/01/23 08:34:41;;;;;;;1.90;1.80;;;;;;;4.47;59.75;100844.81;4360806;32;33025;-90
2024/01/23 08:37:09;;;;;;;3.62;3.28;;;;;;;4.45;59.75;100846.56;4355817;32;33138;-90
2024/01/23 08:39:38;;;;;;;5.20;2.80;;;;;;;4.57;58.94;100849.16;4359957;32;32016;-89
2024/01/23 08:42:06;;;;;;;1.60;1.50;;;;;;;4.18;59.79;100857.94;4367827;32;33733;-89
2024/01/23 08:44:35;;;;;;;1.52;1.45;;;;;;;4.27;59.93;100860.53;4357620;32;32843;-90
2024/01/23 08:47:04;;;;;;;5.32;3.67;;;;;;;4.04;60.35;100875.38;4355225;32;32876;-90
2024/01/23 08:49:32;;;;;;;2.53;2.42;;;;;;;4.41;59.30;100870.09;4366292;32;34410;-90
2024/01/23 08:51:59;;;;;;;2.85;2.67;;;;;;;4.37;59.32;100874.47;4361762;32;32922;-90
2024/01/23 08:54:29;;;;;;;2.75;2.53;;;;;;;4.35;59.82;100874.47;4353980;32;32909;-91
2024/01/23 08:56:57;;;;;;;2.65;2.45;;;;;;;4.35;59.76;100876.22;4355093;32;32557;-90
2024/01/23 08:59:27;;;;;;;4.18;3.85;;;;;;;4.32;59.84;100877.09;4356879;32;32875;-90
2024/01/23 09:01:55;;;;;;;4.07;3.78;;;;;;;4.55;59.74;100884.03;4361918;32;34183;-90
2024/01/23 09:04:23;;;;;;;5.47;4.57;;;;;;;4.79;59.46;100893.56;4360834;32;32574;-90
2024/01/23 09:06:51;;;;;;;4.60;3.22;;;;;;;4.79;59.14;100891.81;4354712;32;31768;-90
2024/01/23 09:09:19;;;;;;;2.08;1.95;;;;;;;4.90;58.82;100881.34;4354211;32;32863;-91
2024/01/23 09:11:47;;;;;;;4.87;4.20;;;;;;;5.00;57.76;100871.69;4360210;32;33028;-90
2024/01/23 09:14:15;;;;;;;6.40;3.10;;;;;;;5.18;57.63;100876.88;4360402;32;33036;-90
2024/01/23 09:16:43;;;;;;;2.25;2.12;;;;;;;5.05;56.85;100865.56;4352202;32;32154;-91
2024/01/23 09:19:11;;;;;;;3.45;1.90;;;;;;;5.05;57.45;100880.41;4359071;32;33476;-90
2024/01/23 09:21:39;;;;;;;5.07;4.60;;;;;;;5.04;57.63;100881.28;4355760;32;32842;-90
2024/01/23 09:24:07;;;;;;;6.80;3.75;;;;;;;5.19;57.29;100875.97;4360473;32;33227;-91
2024/01/23 09:26:38;;;;;;;4.95;4.53;;;;;;;5.14;57.68;100885.59;4373279;32;31759;-91
2024/01/23 09:29:13;;;;;;;4.45;4.03;;;;;;;5.33;57.52;100891.63;4361729;32;33068;-90
2024/01/23 09:31:47;;;;;;;2.37;1.45;;;;;;;5.52;57.33;100895.88;4365548;32;34663;-91
2024/01/23 09:34:32;;;;;;;3.70;2.87;;;;;;;5.35;58.66;100885.50;4360453;32;32744;-91
2024/01/23 09:37:00;;;;;;;4.68;3.37;;;;;;;5.82;57.87;100886.09;4359096;32;31895;-92
2024/01/23 09:39:28;;;;;;;7.05;6.40;;;;;;;5.74;57.76;100887.87;4360763;32;31956;-91
2024/01/23 09:41:59;;;;;;;0.80;0.80;;;;;;;5.72;57.94;100873.94;4348912;32;33392;-91
2024/01/23 09:44:27;;;;;;;1.60;1.52;;;;;;;5.75;57.22;100874.78;4373734;32;33284;-91
2024/01/23 09:46:55;;;;;;;2.05;1.95;;;;;;;5.74;57.14;100875.66;4363842;32;33667;-91
2024/01/23 09:49:26;;;;;;;2.20;2.10;;;;;;;6.07;56.63;100869.31;4343965;32;32929;-91
2024/01/23 09:51:55;;;;;;;2.80;2.65;;;;;;;6.19;55.98;100886.72;4365737;32;34094;-91
2024/01/23 09:54:23;;;;;;;3.97;3.65;;;;;;;6.22;56.47;100881.47;4375540;32;32453;-91
2024/01/23 09:56:52;;;;;;;2.58;2.47;;;;;;;6.24;56.16;100871.81;4363508;32;32647;-91
2024/01/23 09:59:21;;;;;;;2.53;2.42;;;;;;;6.27;56.12;100869.16;4348962;32;33498;-92
2024/01/23 10:01:52;;;;;;;1.73;1.65;;;;;;;6.49;55.72;100868.94;4347611;33;32666;-91
2024/01/23 10:04:21;;;;;;;2.10;1.95;;;;;;;6.71;55.37;100875.72;4365864;32;32633;-91
2024/01/23 10:06:49;;;;;;;3.00;2.87;;;;;;;6.85;55.40;100876.44;4358249;32;31819;-90
2024/01/23 10:09:18;;;;;;;2.20;2.08;;;;;;;7.49;52.54;100866.88;4352196;32;31940;-91
2024/01/23 10:11:46;;;;;;;2.62;2.42;;;;;;;7.47;53.03;100865.16;4366284;32;34515;-91
2024/01/23 10:14:15;;;;;;;2.85;2.70;;;;;;;7.72;52.28;100863.03;4369185;32;33383;-91
2024/01/23 10:16:48;;;;;;;3.47;3.25;;;;;;;7.79;52.13;100864.72;4370548;32;31719;-92
2024/01/23 10:19:32;;;;;;;2.85;2.60;;;;;;;7.38;52.85;100859.12;4362537;32;32670;-92
2024/01/23 10:22:11;;;;;;;1.48;1.27;;;;;;;7.35;54.00;100864.44;4369992;32;32988;-92
2024/01/23 10:24:40;;;;;;;2.45;2.30;;;;;;;7.64;52.85;100856.16;4350684;32;33162;-92
2024/01/23 10:27:09;;;;;;;3.00;2.80;;;;;;;7.87;52.64;100858.41;4368027;32;32678;-92
2024/01/23 10:29:57;;;;;;;4.43;3.58;;;;;;;7.81;52.67;100866.41;4358225;32;33147;-92
2024/01/23 10:32:27;;;;;;;3.37;3.03;;;;;;;7.71;53.24;100867.44;4362955;32;33847;-92
2024/01/23 10:34:55;;;;;;;4.37;3.40;;;;;;;7.95;52.83;100869.69;4362554;32;33270;-91
2024/01/23 10:37:22;;;;;;;5.07;4.68;;;;;;;8.15;52.54;100863.22;4350454;32;32025;-92
2024/01/23 10:39:52;;;;;;;4.22;3.60;;;;;;;8.35;52.36;100861.13;4353608;32;32632;-92
2024/01/23 10:46:43;;;;;;;2.05;1.95;;;;;;;8.75;51.08;100843.78;4359235;32;35643;-92
2024/01/23 10:49:11;;;;;;;5.15;3.65;;;;;;;8.87;50.63;100839.09;4369097;32;32135;-91
2024/01/23 10:51:44;;;;;;;3.78;3.05;;;;;;;8.74;50.74;100835.00;4362516;32;32443;-92
2024/01/23 10:54:27;;;;;;;3.25;2.95;;;;;;;9.03;50.34;100838.81;4362076;32;33000;-91
2024/01/23 10:56:56;;;;;;;4.70;3.30;;;;;;;9.19;50.27;100835.81;4353580;32;32747;-91
2024/01/23 10:59:29;;;;;;;1.23;1.23;;;;;;;8.27;51.90;100841.13;4360297;32;33889;-91
2024/01/23 11:02:31;;;;;;;6.03;3.35;;;;;;;8.94;51.02;100837.22;4351701;32;32921;-90
2024/01/23 11:05:02;;;;;;;4.80;4.40;;;;;;;9.11;50.40;100836.87;4362434;32;33332;-91
2024/01/23 11:07:37;;;;;;;1.73;1.20;;;;;;;8.74;52.23;100837.63;4349942;32;32607;-91
2024/01/23 11:10:39;;;;;;;1.70;1.60;;;;;;;9.04;51.63;100835.28;4360671;32;31814;-91
2024/01/23 11:13:38;;;;;;;4.78;4.15;;;;;;;9.24;50.41;100828.66;4346759;32;32713;-91
2024/01/23 11:16:10;;;;;;;4.33;3.73;;;;;;;8.95;51.04;100826.66;4346021;32;32787;-92
2024/01/23 11:18:39;;;;;;;1.85;1.75;;;;;;;9.33;50.75;100819.69;4360765;32;32354;-91
2024/01/23 11:21:12;;;;;;;3.42;2.80;;;;;;;9.34;51.32;100829.31;4351869;32;33488;-92
2024/01/23 11:23:45;;;;;;;2.40;2.30;;;;;;;9.74;49.64;100817.88;4371360;32;32997;-91
2024/01/23 11:27:04;;;;;;;1.85;1.70;;;;;;;9.47;50.00;100809.69;4352321;32;32557;-92
2024/01/23 11:29:33;;;;;;;7.15;2.45;;;;;;;9.73;49.86;100811.75;4379477;32;34587;-92
2024/01/23 11:32:26;;;;;;;3.30;2.72;;;;;;;9.87;49.66;100795.56;4390985;32;32036;-92
2024/01/23 11:35:00;;;;;;;1.90;1.80;;;;;;;9.34;50.86;100792.44;4373745;32;31925;-92
2024/01/23 11:37:49;;;;;;;10.68;6.53;;;;;;;9.79;50.24;100789.63;4363575;32;33225;-92
2024/01/23 11:40:34;;;;;;;3.62;2.35;;;;;;;10.15;49.38;100781.66;4371690;32;32294;-92
2024/01/23 11:43:07;;;;;;;1.12;1.12;;;;;;;10.36;48.94;100778.50;4377443;32;31330;-92
2024/01/23 11:45:39;;;;;;;6.03;4.57;;;;;;;10.52;48.56;100782.44;4383827;32;33118;-91
2024/01/23 11:48:27;;;;;;;23.50;3.37;;;;;;;10.58;48.16;100775.25;4385229;32;33184;-93
2024/01/23 11:50:56;;;;;;;22.98;5.15;;;;;;;10.36;49.35;100791.69;4370140;32;33400;-92
2024/01/23 11:54:09;;;;;;;0.95;0.95;;;;;;;10.26;49.84;100800.78;4389237;32;32774;-92
2024/01/23 11:56:37;;;;;;;5.07;3.20;;;;;;;10.46;49.42;100798.44;4369380;32;34052;-93
2024/01/23 11:59:28;;;;;;;3.00;2.80;;;;;;;10.69;48.55;100791.66;4386413;32;32601;-92
2024/01/23 12:02:16;;;;;;;1.37;1.35;;;;;;;10.26;50.14;100790.22;4384908;32;32388;-92
2024/01/23 12:05:04;;;;;;;1.55;0.90;;;;;;;10.56;49.38;100792.91;4385904;32;33172;-92
2024/01/23 12:08:16;;;;;;;5.45;2.00;;;;;;;10.45;49.67;100802.00;4375544;32;33850;-92